Time;durP1;ratioP1;P1;durP2;ratioP2;P2;SDS_P1;SDS_P2;PMS_P1;PMS_P2;Temp;Humidity;BMP_temperature;BMP_pressure;BME280_temperature;BME280_humidity;BME280_pressure;Samples;Min_cycle;Max_cycle;Signal;HPM_P1;HPM_P2
2022/05/04 00:00:27;;;;;;;;;;;;;;;10.42;100.00;95775.41;1038025;28;19988;-75
2022/05/04 00:01:00;;;;;;;;;;;;;;;10.43;100.00;95774.34;1034965;28;20005;-75
2022/05/04 00:01:30;;;;;;;;;;;;;;;10.42;100.00;95768.31;1035801;28;19928;-75
2022/05/04 00:02:00;;;;;;;;;;;;;;;10.43;100.00;95780.41;1032422;28;20383;-75
2022/05/04 00:02:31;;;;;;;;;;;;;;;10.43;100.00;95775.16;1027182;28;19922;-75
2022/05/04 00:03:01;;;;;;;;;;;;;;;10.43;100.00;95771.75;1031449;28;19928;-75
2022/05/04 00:03:32;;;;;;;;;;;;;;;10.44;100.00;95770.72;1032492;28;19917;-75
2022/05/04 00:04:02;;;;;;;;;;;;;;;10.42;100.00;95773.56;1044382;28;19920;-75
2022/05/04 00:04:32;;;;;;;;;;;;;;;10.43;100.00;95769.94;1043588;28;20378;-76
2022/05/04 00:05:03;;;;;;;;;;;;;;;10.43;100.00;95767.31;1037332;28;19913;-75
2022/05/04 00:05:36;;;;;;;;;;;;;;;10.43;100.00;95769.94;1034381;28;19976;-75
2022/05/04 00:06:06;;;;;;;;;;;;;;;10.43;100.00;95775.16;1035304;28;19917;-76
2022/05/04 00:06:37;;;;;;;;;;;;;;;10.43;100.00;95777.78;1037444;28;19948;-75
2022/05/04 00:07:07;;;;;;;;;;;;;;;10.45;100.00;95778.31;1043658;28;19980;-75
2022/05/04 00:07:37;;;;;;;;;;;;;;;10.43;100.00;95775.16;1041165;28;19901;-75
2022/05/04 00:08:08;;;;;;;;;;;;;;;10.43;100.00;95777.78;1043545;28;19936;-75
2022/05/04 00:08:38;;;;;;;;;;;;;;;10.42;100.00;95775.41;1038481;28;19909;-75
2022/05/04 00:09:08;;;;;;;;;;;;;;;10.42;100.00;95773.56;1035750;28;19956;-75
2022/05/04 00:09:39;;;;;;;;;;;;;;;10.41;100.00;95777.25;1035677;28;19920;-75
2022/05/04 00:10:09;;;;;;;;;;;;;;;10.40;100.00;95775.69;1030278;28;19984;-75
2022/05/04 00:10:42;;;;;;;;;;;;;;;10.41;100.00;95774.63;1033067;28;19913;-75
2022/05/04 00:11:16;;;;;;;;;;;;;;;10.41;100.00;95777.25;1035561;28;19935;-75
2022/05/04 00:11:46;;;;;;;;;;;;;;;10.41;100.00;95777.25;1033715;28;19960;-75
2022/05/04 00:12:16;;;;;;;;;;;;;;;10.41;100.00;95779.09;1036403;28;19909;-75
2022/05/04 00:12:47;;;;;;;;;;;;;;;10.41;100.00;95776.47;1038703;28;19910;-75
2022/05/04 00:13:17;;;;;;;;;;;;;;;10.41;100.00;95777.25;1039618;28;19941;-75
2022/05/04 00:13:47;;;;;;;;;;;;;;;10.23;100.00;95748.84;1037719;28;20329;-74
2022/05/04 00:14:17;;;;;;;;;;;;;;;10.41;100.00;95777.25;1031345;28;19949;-75
2022/05/04 00:14:48;;;;;;;;;;;;;;;10.41;100.00;95776.47;1031386;28;19968;-76
2022/05/04 00:15:18;;;;;;;;;;;;;;;10.40;100.00;95775.69;1034289;28;19909;-74
2022/05/04 00:15:48;;;;;;;;;;;;;;;10.41;100.00;95777.25;1041117;28;19931;-75
2022/05/04 00:16:19;;;;;;;;;;;;;;;10.39;100.00;95774.09;1039395;28;19914;-75
2022/05/04 00:16:49;;;;;;;;;;;;;;;10.38;100.00;95775.16;1034131;28;19914;-74
2022/05/04 00:17:19;;;;;;;;;;;;;;;10.39;100.00;95776.72;1041241;28;19913;-75
2022/05/04 00:17:49;;;;;;;;;;;;;;;10.37;100.00;95777.00;1036186;28;19906;-75
2022/05/04 00:18:20;;;;;;;;;;;;;;;10.37;100.00;95773.59;1030987;28;19906;-75
2022/05/04 00:18:50;;;;;;;;;;;;;;;10.37;100.00;95770.97;1024335;28;19914;-75
2022/05/04 00:19:20;;;;;;;;;;;;;;;10.35;100.00;95773.81;1032480;28;19914;-75
2022/05/04 00:19:51;;;;;;;;;;;;;;;10.35;100.00;95773.03;1031449;28;19906;-76
2022/05/04 00:20:21;;;;;;;;;;;;;;;10.33;100.00;95770.69;1028492;28;19921;-75
2022/05/04 00:20:51;;;;;;;;;;;;;;;10.34;100.00;95776.72;1038890;28;19918;-75
2022/05/04 00:21:21;;;;;;;;;;;;;;;10.34;100.00;95776.72;1039359;28;19917;-75
2022/05/04 00:21:52;;;;;;;;;;;;;;;10.32;100.00;95773.56;1033409;28;20014;-75
2022/05/04 00:22:22;;;;;;;;;;;;;;;10.31;100.00;95769.38;1030007;28;19988;-76
2022/05/04 00:22:52;;;;;;;;;;;;;;;10.31;100.00;95774.63;1029564;28;19953;-76
2022/05/04 00:23:23;;;;;;;;;;;;;;;10.31;100.00;95769.38;1030168;28;19914;-75
2022/05/04 00:23:53;;;;;;;;;;;;;;;10.30;100.00;95773.84;1033057;28;19917;-75
2022/05/04 00:24:23;;;;;;;;;;;;;;;10.29;100.00;95771.44;1038712;28;19965;-75
2022/05/04 00:24:54;;;;;;;;;;;;;;;10.27;100.00;95776.19;1039446;28;19924;-76
2022/05/04 00:25:24;;;;;;;;;;;;;;;10.27;100.00;95776.19;1043369;28;19954;-75
2022/05/04 00:25:54;;;;;;;;;;;;;;;10.25;100.00;95773.78;1040818;28;19913;-75
2022/05/04 00:26:25;;;;;;;;;;;;;;;10.24;100.00;95782.69;1038582;28;19913;-76
2022/05/04 00:26:55;;;;;;;;;;;;;;;10.24;100.00;95776.66;1039034;28;19981;-75
2022/05/04 00:27:26;;;;;;;;;;;;;;;10.23;100.00;95781.13;1040932;28;19917;-74
2022/05/04 00:27:56;;;;;;;;;;;;;;;10.21;100.00;95769.31;1042132;28;19917;-76
2022/05/04 00:28:29;;;;;;;;;;;;;;;10.21;100.00;95775.34;1042982;28;20759;-76
2022/05/04 00:28:59;;;;;;;;;;;;;;;10.20;100.00;95780.88;1039194;28;19920;-76
2022/05/04 00:29:30;;;;;;;;;;;;;;;10.21;100.00;95777.19;1033042;28;19933;-75
2022/05/04 00:30:00;;;;;;;;;;;;;;;10.19;100.00;95779.28;1033213;28;19929;-75
2022/05/04 00:30:31;;;;;;;;;;;;;;;10.18;100.00;95778.47;1035404;28;20314;-75
2022/05/04 00:31:01;;;;;;;;;;;;;;;10.17;100.00;95774.28;1024150;28;19944;-74
2022/05/04 00:31:31;;;;;;;;;;;;;;;10.18;100.00;95777.69;1030778;28;19925;-75
2022/05/04 00:32:01;;;;;;;;;;;;;;;10.15;100.00;95779.00;1034927;28;19917;-76
2022/05/04 00:32:32;;;;;;;;;;;;;;;10.16;100.00;95775.34;1033214;28;20019;-74
2022/05/04 00:33:02;;;;;;;;;;;;;;;10.13;100.00;95776.66;1042001;28;19971;-75
2022/05/04 00:33:32;;;;;;;;;;;;;;;10.13;100.00;95776.66;1043400;28;20305;-75
2022/05/04 00:34:03;;;;;;;;;;;;;;;10.12;100.00;95775.06;1037231;28;19971;-74
2022/05/04 00:34:36;;;;;;;;;;;;;;;10.12;100.00;95774.28;1037837;28;19980;-76
2022/05/04 00:35:06;;;;;;;;;;;;;;;9.91;100.00;95747.22;1038329;28;19917;-75
2022/05/04 00:35:37;;;;;;;;;;;;;;;10.09;100.00;95783.47;1039410;28;19921;-75
2022/05/04 00:36:08;;;;;;;;;;;;;;;10.09;100.00;95780.84;1041483;28;19916;-74
2022/05/04 00:36:38;;;;;;;;;;;;;;;10.08;100.00;95787.09;1037472;28;19945;-76
2022/05/04 00:37:08;;;;;;;;;;;;;;;10.07;100.00;95779.50;1038221;28;19979;-75
2022/05/04 00:37:42;;;;;;;;;;;;;;;10.05;100.00;95773.72;1035361;28;20353;-75
2022/05/04 00:38:15;;;;;;;;;;;;;;;10.02;100.00;95782.88;1033136;28;19918;-75
2022/05/04 00:38:45;;;;;;;;;;;;;;;10.00;100.00;95782.38;1031393;28;19922;-75
2022/05/04 00:39:15;;;;;;;;;;;;;;;10.00;100.00;95781.59;1039435;28;19956;-75
2022/05/04 00:39:47;;;;;;;;;;;;;;;10.00;100.00;95782.38;1033159;28;19921;-74
2022/05/04 00:40:17;;;;;;;;;;;;;;;9.98;100.00;95781.84;1031520;28;19918;-75
2022/05/04 00:40:47;;;;;;;;;;;;;;;9.98;100.00;95784.44;1027208;28;19925;-75
2022/05/04 00:41:18;;;;;;;;;;;;;;;9.96;100.00;95781.31;1022446;28;19953;-76
2022/05/04 00:41:48;;;;;;;;;;;;;;;9.96;100.00;95785.75;1029076;28;19925;-75
2022/05/04 00:42:19;;;;;;;;;;;;;;;9.93;100.00;95784.44;1031379;28;19922;-75
2022/05/04 00:42:49;;;;;;;;;;;;;;;9.92;100.00;95782.84;1034080;28;19940;-74
2022/05/04 00:43:23;;;;;;;;;;;;;;;9.91;100.00;95786.53;1032903;28;19921;-76
2022/05/04 00:43:53;;;;;;;;;;;;;;;9.90;100.00;95787.59;1038741;28;19971;-75
2022/05/04 00:44:23;;;;;;;;;;;;;;;9.89;100.00;95785.97;1035219;28;19940;-73
2022/05/04 00:44:55;;;;;;;;;;;;;;;9.88;100.00;95789.66;1036559;28;19923;-75
2022/05/04 00:45:25;;;;;;;;;;;;;;;9.85;100.00;95782.31;1038512;28;20026;-75
2022/05/04 00:45:56;;;;;;;;;;;;;;;9.84;100.00;95788.59;1039503;28;20308;-75
2022/05/04 00:46:27;;;;;;;;;;;;;;;9.84;100.00;95788.59;1040442;28;20298;-73
2022/05/04 00:46:57;;;;;;;;;;;;;;;9.84;100.00;95785.97;1042895;28;19917;-75
2022/05/04 00:47:27;;;;;;;;;;;;;;;9.82;100.00;95782.81;1043347;28;19917;-75
2022/05/04 00:47:57;;;;;;;;;;;;;;;9.81;100.00;95783.88;1037367;28;19943;-74
2022/05/04 00:48:28;;;;;;;;;;;;;;;9.80;100.00;95790.16;1041620;28;20452;-74
2022/05/04 00:48:58;;;;;;;;;;;;;;;9.76;100.00;95778.59;1039453;28;19913;-75
2022/05/04 00:49:29;;;;;;;;;;;;;;;9.76;100.00;95775.97;1038099;28;19941;-74
2022/05/04 00:50:04;;;;;;;;;;;;;;;9.76;100.00;95783.84;1041256;28;19909;-75
2022/05/04 00:50:35;;;;;;;;;;;;;;;9.75;100.00;95790.13;1038591;28;19917;-75
2022/05/04 00:51:08;;;;;;;;;;;;;;;9.72;100.00;95780.94;1034355;28;19947;-74
2022/05/04 00:51:38;;;;;;;;;;;;;;;9.71;100.00;95783.81;1033170;28;20429;-75
2022/05/04 00:52:08;;;;;;;;;;;;;;;9.70;100.00;95782.25;1031466;28;19914;-74
2022/05/04 00:52:41;;;;;;;;;;;;;;;9.67;100.00;95786.97;1031016;28;19956;-74
2022/05/04 00:53:11;;;;;;;;;;;;;;;9.66;100.00;95781.97;1028927;28;19917;-74
2022/05/04 00:53:42;;;;;;;;;;;;;;;9.64;100.00;95778.81;1031434;28;19914;-75
2022/05/04 00:54:12;;;;;;;;;;;;;;;9.63;100.00;95793.75;1035256;28;19917;-75
2022/05/04 00:54:43;;;;;;;;;;;;;;;9.60;100.00;95789.03;1036626;28;19905;-74
2022/05/04 00:55:13;;;;;;;;;;;;;;;9.60;100.00;95791.63;1030404;28;20001;-76
2022/05/04 00:55:44;;;;;;;;;;;;;;;9.58;100.00;95787.69;1026967;28;20619;-75
2022/05/04 00:56:14;;;;;;;;;;;;;;;9.57;100.00;95784.28;1031106;28;19914;-75
2022/05/04 00:56:45;;;;;;;;;;;;;;;9.58;100.00;95779.84;1033112;28;20331;-74
2022/05/04 00:57:17;;;;;;;;;;;;;;;9.57;100.00;95778.25;1034308;28;19918;-75
2022/05/04 00:58:56;;;;;;;;;;;;;;;9.53;100.00;95783.22;1023508;28;19970;-75
2022/05/04 00:59:26;;;;;;;;;;;;;;;9.55;100.00;95790.81;1032344;28;19914;-75
2022/05/04 00:59:56;;;;;;;;;;;;;;;9.53;100.00;95783.22;1040137;28;19956;-75
2022/05/04 01:00:27;;;;;;;;;;;;;;;9.53;100.00;95787.69;1040715;28;20349;-74
2022/05/04 01:00:59;;;;;;;;;;;;;;;9.52;100.00;95786.88;1028820;28;19917;-75
2022/05/04 01:01:30;;;;;;;;;;;;;;;9.52;100.00;95786.09;1023470;28;19910;-75
2022/05/04 01:02:00;;;;;;;;;;;;;;;9.52;100.00;95786.88;1021062;29;19946;-75
2022/05/04 01:02:31;;;;;;;;;;;;;;;9.52;100.00;95792.09;1023758;28;20303;-75
2022/05/04 01:03:01;;;;;;;;;;;;;;;9.53;100.00;95785.84;1028119;28;19914;-75
2022/05/04 01:03:34;;;;;;;;;;;;;;;9.52;100.00;95786.88;1031759;28;19909;-74
2022/05/04 01:04:04;;;;;;;;;;;;;;;9.53;100.00;95787.69;1026722;28;20682;-75
2022/05/04 01:04:35;;;;;;;;;;;;;;;9.50;100.00;95788.97;1035578;28;19917;-75
2022/05/04 01:05:11;;;;;;;;;;;;;;;9.50;100.00;95782.94;1039930;28;20394;-75
2022/05/04 01:05:42;;;;;;;;;;;;;;;9.52;100.00;95796.56;1040415;28;19917;-74
2022/05/04 01:06:12;;;;;;;;;;;;;;;9.50;100.00;95783.72;1037659;28;20331;-74
2022/05/04 01:06:43;;;;;;;;;;;;;;;9.49;100.00;95792.63;1039386;28;19919;-75
2022/05/04 01:07:14;;;;;;;;;;;;;;;9.49;100.00;95787.41;1035527;28;19909;-75
2022/05/04 01:07:45;;;;;;;;;;;;;;;9.50;100.00;95783.72;1029150;28;19918;-75
2022/05/04 01:08:15;;;;;;;;;;;;;;;9.49;100.00;95786.59;1034790;28;19989;-75
2022/05/04 01:08:45;;;;;;;;;;;;;;;9.47;100.00;95789.47;1036031;28;20411;-75
2022/05/04 01:09:15;;;;;;;;;;;;;;;9.46;100.00;95782.66;1039870;28;19902;-75
2022/05/04 01:09:49;;;;;;;;;;;;;;;9.46;100.00;95790.53;1038296;28;19909;-74
2022/05/04 01:10:19;;;;;;;;;;;;;;;9.45;100.00;95786.31;1034159;28;19902;-75
2022/05/04 01:10:49;;;;;;;;;;;;;;;9.45;100.00;95786.31;1032568;28;20406;-75
2022/05/04 01:11:19;;;;;;;;;;;;;;;9.43;100.00;95791.03;1036208;28;19906;-76
2022/05/04 01:11:50;;;;;;;;;;;;;;;9.41;100.00;95785.25;1033830;28;19980;-74
2022/05/04 01:12:23;;;;;;;;;;;;;;;9.43;100.00;95788.41;1038544;28;19909;-75
2022/05/04 01:12:53;;;;;;;;;;;;;;;9.42;100.00;95789.44;1032057;28;20363;-75
2022/05/04 01:13:24;;;;;;;;;;;;;;;9.41;100.00;95787.88;1026943;28;19910;-74
2022/05/04 01:13:58;;;;;;;;;;;;;;;9.27;100.00;95768.41;1028341;28;20582;-75
2022/05/04 01:14:28;;;;;;;;;;;;;;;9.42;100.00;95792.06;1033256;28;19910;-75
2022/05/04 01:14:59;;;;;;;;;;;;;;;9.41;100.00;95787.88;1030125;28;20268;-75
2022/05/04 01:15:29;;;;;;;;;;;;;;;9.41;100.00;95785.25;1031210;28;19910;-75
2022/05/04 01:15:59;;;;;;;;;;;;;;;9.40;100.00;95791.53;1027919;28;20489;-75
2022/05/04 01:16:30;;;;;;;;;;;;;;;9.41;100.00;95793.09;1021161;28;19914;-75
2022/05/04 01:17:00;;;;;;;;;;;;;;;9.42;100.00;95790.25;1031540;28;19937;-75
2022/05/04 01:17:30;;;;;;;;;;;;;;;9.41;100.00;95786.03;1031486;28;20358;-75
2022/05/04 01:18:01;;;;;;;;;;;;;;;9.38;100.00;95786.53;1033631;28;19917;-75
2022/05/04 01:18:31;;;;;;;;;;;;;;;9.39;100.00;95787.34;1035635;28;19916;-75
2022/05/04 01:19:01;;;;;;;;;;;;;;;9.36;100.00;95791.25;1027887;28;19945;-75
2022/05/04 01:19:32;;;;;;;;;;;;;;;9.36;100.00;95783.41;1033040;28;19916;-75
2022/05/04 01:20:02;;;;;;;;;;;;;;;9.36;100.00;95787.84;1031624;28;19921;-75
2022/05/04 01:20:32;;;;;;;;;;;;;;;9.34;100.00;95784.69;1033863;28;20331;-75
2022/05/04 01:21:03;;;;;;;;;;;;;;;9.33;100.00;95788.34;1031532;28;19910;-76
2022/05/04 01:21:39;;;;;;;;;;;;;;;9.33;100.00;95786.53;1032323;28;19952;-75
2022/05/04 01:22:09;;;;;;;;;;;;;;;9.33;100.00;95785.72;1039602;28;19914;-75
2022/05/04 01:22:40;;;;;;;;;;;;;;;9.31;100.00;95780.72;1036544;28;19909;-75
2022/05/04 01:23:10;;;;;;;;;;;;;;;9.30;100.00;95781.78;1029259;28;19953;-75
2022/05/04 01:23:41;;;;;;;;;;;;;;;9.29;100.00;95785.47;1031849;28;20592;-75
2022/05/04 01:24:11;;;;;;;;;;;;;;;9.29;100.00;95787.25;1031816;28;20343;-75
2022/05/04 01:24:42;;;;;;;;;;;;;;;9.29;100.00;95787.25;1026241;28;19914;-75
2022/05/04 01:25:15;;;;;;;;;;;;;;;9.29;100.00;95782.03;1019075;28;19915;-76
2022/05/04 01:25:45;;;;;;;;;;;;;;;9.27;100.00;95784.91;1020916;28;19911;-75
2022/05/04 01:26:18;;;;;;;;;;;;;;;9.26;100.00;95785.19;1029296;28;20661;-75
2022/05/04 01:26:49;;;;;;;;;;;;;;;9.25;100.00;95791.44;1035245;28;20012;-75
2022/05/04 01:27:19;;;;;;;;;;;;;;;9.24;100.00;95784.63;1039743;28;19916;-75
2022/05/04 01:27:49;;;;;;;;;;;;;;;9.25;100.00;95783.56;1039749;28;19901;-76
2022/05/04 01:28:20;;;;;;;;;;;;;;;9.22;100.00;95777.00;1036913;28;20471;-74
2022/05/04 01:28:50;;;;;;;;;;;;;;;9.25;100.00;95781.75;1039534;28;19924;-75
2022/05/04 01:29:20;;;;;;;;;;;;;;;9.24;100.00;95784.63;1036098;28;19923;-76
2022/05/04 01:29:52;;;;;;;;;;;;;;;9.22;100.00;95784.84;1037913;28;20637;-75
2022/05/04 01:30:25;;;;;;;;;;;;;;;9.22;100.00;95782.25;1031128;28;19929;-75
2022/05/04 01:30:55;;;;;;;;;;;;;;;9.21;100.00;95780.69;1036266;28;19914;-75
2022/05/04 01:31:26;;;;;;;;;;;;;;;9.21;100.00;95786.69;1039927;28;19921;-74
2022/05/04 01:31:56;;;;;;;;;;;;;;;9.18;100.00;95787.19;1033124;28;20417;-75
2022/05/04 01:32:26;;;;;;;;;;;;;;;9.22;100.00;95782.25;1031634;28;19928;-76
2022/05/04 01:32:57;;;;;;;;;;;;;;;9.18;100.00;95781.97;1031978;28;19918;-75
2022/05/04 01:33:27;;;;;;;;;;;;;;;9.16;100.00;95781.44;1032703;28;19921;-74
2022/05/04 01:34:00;;;;;;;;;;;;;;;9.17;100.00;95785.63;1027821;28;19922;-75
2022/05/04 01:34:30;;;;;;;;;;;;;;;9.14;100.00;95780.09;1035689;28;20534;-75
2022/05/04 01:35:01;;;;;;;;;;;;;;;9.12;100.00;95777.75;1033995;28;19984;-75
2022/05/04 01:35:31;;;;;;;;;;;;;;;9.14;100.00;95780.09;1038565;28;19921;-75
2022/05/04 01:36:01;;;;;;;;;;;;;;;9.12;100.00;95777.75;1039841;28;19917;-75
2022/05/04 01:36:32;;;;;;;;;;;;;;;9.16;100.00;95783.28;1033155;28;20027;-74
2022/05/04 01:37:02;;;;;;;;;;;;;;;9.12;100.00;95783.00;1034002;28;19925;-75
2022/05/04 01:37:32;;;;;;;;;;;;;;;9.15;100.00;95781.69;1031932;28;20013;-75
2022/05/04 01:38:03;;;;;;;;;;;;;;;9.15;100.00;95776.44;1035787;28;20318;-75
2022/05/04 01:38:33;;;;;;;;;;;;;;;9.12;100.00;95788.22;1028747;28;19922;-75
2022/05/04 01:39:03;;;;;;;;;;;;;;;9.11;100.00;95781.41;1035253;28;19969;-75
2022/05/04 01:39:34;;;;;;;;;;;;;;;9.12;100.00;95782.19;1031711;28;19972;-75
2022/05/04 01:40:04;;;;;;;;;;;;;;;9.14;100.00;95780.09;1031687;28;19918;-75
2022/05/04 01:40:35;;;;;;;;;;;;;;;9.15;100.00;95782.50;1029706;28;19921;-74
2022/05/04 01:42:02;;;;;;;;;;;;;;;9.13;100.00;95781.16;1026686;28;19981;-75
2022/05/04 01:42:05;;;;;;;;;;;;;;;9.15;100.00;95781.69;1031629;28;19976;-75
2022/05/04 01:42:35;;;;;;;;;;;;;;;9.13;100.00;95787.19;1042597;28;19913;-75
2022/05/04 01:43:06;;;;;;;;;;;;;;;9.14;100.00;95783.50;1043684;28;19921;-75
2022/05/04 01:43:36;;;;;;;;;;;;;;;9.13;100.00;95783.78;1036043;28;20008;-74
2022/05/04 01:44:06;;;;;;;;;;;;;;;9.13;100.00;95783.78;1033853;28;19976;-75
2022/05/04 01:44:37;;;;;;;;;;;;;;;9.15;100.00;95781.69;1025611;28;19981;-74
2022/05/04 01:45:09;;;;;;;;;;;;;;;9.17;100.00;95785.63;1028031;28;19922;-74
2022/05/04 01:45:39;;;;;;;;;;;;;;;9.20;100.00;95784.34;1030544;28;19925;-74
2022/05/04 01:46:09;;;;;;;;;;;;;;;9.19;100.00;95780.94;1033177;28;20371;-74
2022/05/04 01:46:39;;;;;;;;;;;;;;;9.18;100.00;95787.19;1035188;28;20103;-74
2022/05/04 01:47:10;;;;;;;;;;;;;;;9.17;100.00;95780.41;1033321;28;19923;-74
2022/05/04 01:47:40;;;;;;;;;;;;;;;9.17;100.00;95788.25;1033174;28;19924;-74
2022/05/04 01:48:11;;;;;;;;;;;;;;;9.16;100.00;95781.44;1031076;28;19926;-74
2022/05/04 01:48:44;;;;;;;;;;;;;;;9.17;100.00;95783.00;1036937;28;19902;-75
2022/05/04 01:49:14;;;;;;;;;;;;;;;9.16;100.00;95786.69;1033140;28;19929;-75
2022/05/04 01:49:45;;;;;;;;;;;;;;;9.17;100.00;95785.63;1030998;28;20351;-75
2022/05/04 01:50:19;;;;;;;;;;;;;;;9.17;100.00;95785.63;1031698;28;20380;-75
2022/05/04 01:50:49;;;;;;;;;;;;;;;9.17;100.00;95790.88;1035497;28;19952;-75
2022/05/04 01:51:19;;;;;;;;;;;;;;;9.19;100.00;95788.78;1038460;28;19913;-75
2022/05/04 01:51:50;;;;;;;;;;;;;;;9.20;100.00;95790.38;1036269;28;20375;-74
2022/05/04 01:52:20;;;;;;;;;;;;;;;9.21;100.00;95785.91;1034253;28;19910;-74
2022/05/04 01:52:53;;;;;;;;;;;;;;;9.23;100.00;95785.69;1030508;28;19914;-75
2022/05/04 01:53:24;;;;;;;;;;;;;;;9.25;100.00;95786.19;1035376;28;20679;-75
2022/05/04 01:53:55;;;;;;;;;;;;;;;9.22;100.00;95787.47;1033687;28;20004;-76
2022/05/04 01:54:25;;;;;;;;;;;;;;;9.22;100.00;95787.47;1030639;28;19929;-74
2022/05/04 01:54:55;;;;;;;;;;;;;;;9.23;100.00;95789.06;1035616;28;19905;-75
2022/05/04 01:55:27;;;;;;;;;;;;;;;9.23;100.00;95785.69;1040097;28;19917;-75
2022/05/04 01:55:57;;;;;;;;;;;;;;;9.24;100.00;95787.25;1044293;28;19916;-74
2022/05/04 01:56:28;;;;;;;;;;;;;;;9.23;100.00;95789.06;1043243;28;19905;-74
2022/05/04 01:56:58;;;;;;;;;;;;;;;9.24;100.00;95784.63;1035670;28;19910;-75
2022/05/04 01:57:28;;;;;;;;;;;;;;;9.25;100.00;95783.56;1034818;28;19956;-75
2022/05/04 01:57:59;;;;;;;;;;;;;;;9.25;100.00;95786.19;1031887;28;19917;-74
2022/05/04 01:58:32;;;;;;;;;;;;;;;9.26;100.00;95788.56;1035843;28;20287;-75
2022/05/04 01:59:03;;;;;;;;;;;;;;;9.28;100.00;95788.31;1044014;28;19909;-75
2022/05/04 01:59:36;;;;;;;;;;;;;;;9.30;100.00;95789.63;1044204;28;19913;-74
2022/05/04 02:00:06;;;;;;;;;;;;;;;9.29;100.00;95788.06;1039318;28;19913;-76
2022/05/04 02:00:37;;;;;;;;;;;;;;;9.28;100.00;95781.25;1037121;28;19920;-75
2022/05/04 02:01:07;;;;;;;;;;;;;;;9.30;100.00;95788.84;1031792;28;19917;-74
2022/05/04 02:01:40;;;;;;;;;;;;;;;9.31;100.00;95791.22;1031913;28;19913;-75
2022/05/04 02:02:10;;;;;;;;;;;;;;;9.32;100.00;95786.75;1031327;28;19918;-74
2022/05/04 02:02:41;;;;;;;;;;;;;;;9.33;100.00;95788.34;1032218;28;19906;-74
2022/05/04 02:03:11;;;;;;;;;;;;;;;9.16;100.00;95760.50;1036218;28;20434;-74
2022/05/04 02:03:41;;;;;;;;;;;;;;;9.34;100.00;95784.69;1040125;28;19917;-76
2022/05/04 02:04:12;;;;;;;;;;;;;;;9.34;100.00;95788.09;1043856;28;20767;-75
2022/05/04 02:04:42;;;;;;;;;;;;;;;9.36;100.00;95786.00;1040147;28;19916;-75
2022/05/04 02:05:12;;;;;;;;;;;;;;;9.39;100.00;95792.59;1039908;28;20425;-75
2022/05/04 02:05:45;;;;;;;;;;;;;;;9.39;100.00;95785.50;1039856;28;20425;-75
2022/05/04 02:06:16;;;;;;;;;;;;;;;9.39;100.00;95792.59;1035816;28;20000;-73
2022/05/04 02:06:47;;;;;;;;;;;;;;;9.38;100.00;95781.28;1035079;28;19909;-75
2022/05/04 02:07:17;;;;;;;;;;;;;;;9.39;100.00;95787.34;1027725;28;19910;-75
2022/05/04 02:07:48;;;;;;;;;;;;;;;9.39;100.00;95789.97;1035895;28;19905;-75
2022/05/04 02:08:18;;;;;;;;;;;;;;;9.37;100.00;95786.81;1035784;28;19972;-75
2022/05/04 02:08:49;;;;;;;;;;;;;;;9.38;100.00;95789.16;1039862;28;19948;-75
2022/05/04 02:09:20;;;;;;;;;;;;;;;9.37;100.00;95789.41;1039645;28;19913;-75
2022/05/04 02:09:50;;;;;;;;;;;;;;;9.37;100.00;95784.19;1040108;28;20505;-75
2022/05/04 02:10:20;;;;;;;;;;;;;;;9.38;100.00;95788.38;1044164;28;20321;-75
2022/05/04 02:10:50;;;;;;;;;;;;;;;9.37;100.00;95784.19;1040012;28;19925;-75
2022/05/04 02:11:21;;;;;;;;;;;;;;;9.37;100.00;95784.19;1039698;28;19917;-75
2022/05/04 02:11:52;;;;;;;;;;;;;;;9.37;100.00;95784.19;1031914;28;20343;-75
2022/05/04 02:12:22;;;;;;;;;;;;;;;9.36;100.00;95785.22;1036040;28;20007;-75
2022/05/04 02:12:52;;;;;;;;;;;;;;;9.36;100.00;95787.84;1035601;28;20496;-75
2022/05/04 02:13:23;;;;;;;;;;;;;;;9.35;100.00;95781.00;1035343;28;20375;-75
2022/05/04 02:13:53;;;;;;;;;;;;;;;9.35;100.00;95787.03;1031902;28;19910;-75
2022/05/04 02:14:25;;;;;;;;;;;;;;;9.33;100.00;95780.50;1034375;28;19914;-75
2022/05/04 02:14:55;;;;;;;;;;;;;;;9.35;100.00;95775.78;1044339;28;19960;-75
2022/05/04 02:15:26;;;;;;;;;;;;;;;9.34;100.00;95779.44;1048093;28;19921;-75
2022/05/04 02:15:56;;;;;;;;;;;;;;;9.35;100.00;95786.25;1048023;28;19913;-75
2022/05/04 02:16:26;;;;;;;;;;;;;;;9.35;100.00;95773.16;1047373;28;19920;-75
2022/05/04 02:16:56;;;;;;;;;;;;;;;9.33;100.00;95777.88;1039915;28;20012;-75
2022/05/04 02:17:27;;;;;;;;;;;;;;;9.34;100.00;95782.06;1039794;28;19917;-75
2022/05/04 02:17:57;;;;;;;;;;;;;;;9.33;100.00;95783.13;1039659;28;19921;-74
2022/05/04 02:18:27;;;;;;;;;;;;;;;9.31;100.00;95775.50;1039802;28;19917;-75
2022/05/04 02:18:58;;;;;;;;;;;;;;;9.33;100.00;95777.88;1044149;28;20010;-75
2022/05/04 02:19:28;;;;;;;;;;;;;;;9.33;100.00;95780.50;1047887;28;20405;-74
2022/05/04 02:19:58;;;;;;;;;;;;;;;9.34;100.00;95784.69;1044079;28;19970;-75
2022/05/04 02:20:29;;;;;;;;;;;;;;;9.33;100.00;95780.50;1039880;28;20383;-75
2022/05/04 02:20:59;;;;;;;;;;;;;;;9.31;100.00;95777.34;1040218;28;20020;-75
2022/05/04 02:21:32;;;;;;;;;;;;;;;9.32;100.00;95781.53;1039818;28;19933;-75
2022/05/04 02:22:03;;;;;;;;;;;;;;;9.30;100.00;95781.78;1044339;28;19920;-75
2022/05/04 02:22:33;;;;;;;;;;;;;;;9.32;100.00;95786.75;1044640;28;20015;-75
2022/05/04 02:23:03;;;;;;;;;;;;;;;9.33;100.00;95780.50;1047805;28;19959;-75
2022/05/04 02:23:34;;;;;;;;;;;;;;;9.31;100.00;95774.72;1043549;28;19966;-75
2022/05/04 02:24:04;;;;;;;;;;;;;;;9.31;100.00;95779.94;1040340;28;19909;-75
2022/05/04 02:24:37;;;;;;;;;;;;;;;9.31;100.00;95785.19;1040125;28;19924;-75
2022/05/04 02:25:09;;;;;;;;;;;;;;;9.31;100.00;95780.72;1039861;28;20002;-75
2022/05/04 02:25:39;;;;;;;;;;;;;;;9.31;100.00;95779.94;1039887;28;19924;-76
2022/05/04 02:26:09;;;;;;;;;;;;;;;9.30;100.00;95779.16;1044019;28;20471;-75
2022/05/04 02:26:40;;;;;;;;;;;;;;;9.29;100.00;95784.63;1037485;28;19925;-75
2022/05/04 02:27:10;;;;;;;;;;;;;;;9.30;100.00;95783.63;1035984;28;20392;-75
2022/05/04 02:27:43;;;;;;;;;;;;;;;9.28;100.00;95780.44;1035472;28;19918;-75
2022/05/04 02:28:14;;;;;;;;;;;;;;;9.30;100.00;95775.75;1032273;28;19957;-75
2022/05/04 02:28:47;;;;;;;;;;;;;;;9.28;100.00;95781.25;1040642;28;20043;-74
2022/05/04 02:29:17;;;;;;;;;;;;;;;9.29;100.00;95776.78;1044075;28;19986;-75
2022/05/04 02:29:49;;;;;;;;;;;;;;;9.30;100.00;95775.75;1043939;28;19920;-74
2022/05/04 02:30:22;;;;;;;;;;;;;;;9.29;100.00;95782.84;1031486;28;19945;-75
2022/05/04 02:30:53;;;;;;;;;;;;;;;9.29;100.00;95776.78;1036457;28;20287;-75
2022/05/04 02:31:23;;;;;;;;;;;;;;;9.29;100.00;95782.03;1035814;28;19921;-74
2022/05/04 02:31:56;;;;;;;;;;;;;;;9.29;100.00;95777.59;1038826;28;19943;-75
2022/05/04 02:32:26;;;;;;;;;;;;;;;9.28;100.00;95777.84;1035430;28;20003;-75
2022/05/04 02:32:56;;;;;;;;;;;;;;;9.28;100.00;95775.22;1032096;28;20657;-75
2022/05/04 02:33:26;;;;;;;;;;;;;;;9.26;100.00;95782.56;1031527;28;19972;-74
2022/05/04 02:33:57;;;;;;;;;;;;;;;9.25;100.00;95771.28;1031742;28;19918;-74
2022/05/04 02:34:27;;;;;;;;;;;;;;;9.25;100.00;95776.50;1039760;28;19909;-74
2022/05/04 02:38:14;;;;;;;;;;;;;;;9.25;100.00;95776.50;1036402;28;20065;-75
2022/05/04 02:38:44;;;;;;;;;;;;;;;9.25;100.00;95779.13;1035709;28;19957;-75
2022/05/04 02:39:14;;;;;;;;;;;;;;;9.26;100.00;95780.72;1031682;28;19924;-75
2022/05/04 02:39:44;;;;;;;;;;;;;;;9.28;100.00;95780.44;1025403;28;19917;-74
2022/05/04 02:40:15;;;;;;;;;;;;;;;9.29;100.00;95782.03;1032983;28;20454;-75
2022/05/04 02:40:45;;;;;;;;;;;;;;;9.27;100.00;95779.66;1035440;28;19910;-77
2022/05/04 02:41:15;;;;;;;;;;;;;;;9.27;100.00;95781.50;1035667;28;19960;-75
2022/05/04 02:41:48;;;;;;;;;;;;;;;9.28;100.00;95777.84;1035727;28;19966;-75
2022/05/04 02:42:18;;;;;;;;;;;;;;;9.28;100.00;95781.25;1032075;28;20478;-76
2022/05/04 02:42:49;;;;;;;;;;;;;;;9.29;100.00;95779.41;1036105;28;19936;-75
2022/05/04 02:43:20;;;;;;;;;;;;;;;9.27;100.00;95779.66;1036302;28;19920;-75
2022/05/04 02:43:50;;;;;;;;;;;;;;;9.27;100.00;95784.91;1043754;28;19913;-74
2022/05/04 02:44:20;;;;;;;;;;;;;;;9.27;100.00;95779.66;1039818;28;19948;-75
2022/05/04 02:44:51;;;;;;;;;;;;;;;9.28;100.00;95780.44;1039837;28;19913;-74